Flight Track Log - Related Links

Times and Time Zones

All times are in EDT time to prevent confusion due to time zone crossing. See the FSR331 flight status page for this flight to view local times or setup timezone preferences in your user account.

Time Position Orientation Groundspeed Altitude Reporting Facility
EDT Latitude Longitude Course Direction KTS MPH feet Rate Location/Type
Tue 04:51:10 PM 34.7856 -82.4303 326° Northwest 226 260 4,900  Level Atlanta Center
Tue 04:52:10 PM 34.7800 -82.4936 264° West 218 251 5,200 1,300 Climbing Atlanta Center
Tue 04:53:10 PM 34.8183 -82.5461 312° West 232 267 7,500 2,400 Climbing Atlanta Center
Tue 04:54:10 PM 34.8753 -82.6008 322° Northwest 230 265 10,000 2,750 Climbing Atlanta Center
Tue 04:55:00 PM 35.1926 -82.7177 317° Northwest  Level FlightAware Approximate
Tue 04:55:10 PM 34.9408 -82.6681 320° Northwest 266 306 13,000  Level Atlanta Center
Tue 04:56:00 PM 35.2635 -82.7946 326° Northwest  Level FlightAware Approximate
Tue 04:56:10 PM 35.0061 -82.7353 320° Northwest 295 339 15,600  Level Atlanta Center
Tue 04:57:10 PM 35.0778 -82.8028 322° Northwest 313 360 17,800 2,200 Climbing Atlanta Center
Tue 04:58:10 PM 35.1517 -82.8831 318° Northwest 330 380 20,000 2,200 Climbing Atlanta Center
Tue 04:59:10 PM 35.2336 -82.9633 321° Northwest 342 394 22,200 2,100 Climbing Atlanta Center
Tue 05:00:10 PM 35.3072 -83.0386 320° Northwest 347 399 24,200 2,000 Climbing Atlanta Center
Tue 05:01:10 PM 35.3789 -83.1117 320° Northwest 347 399 26,200 1,750 Climbing Atlanta Center
Tue 05:02:10 PM 35.4525 -83.1847 321° Northwest 341 392 27,700 1,250 Climbing Atlanta Center
Tue 05:03:10 PM 35.5344 -83.2656 321° Northwest 351 404 28,700 1,000 Climbing Atlanta Center
Tue 05:04:10 PM 35.6142 -83.3464 321° Northwest 358 412 29,700 1,000 Climbing Atlanta Center
Tue 05:05:10 PM 35.6939 -83.4328 319° Northwest 363 418 30,700 1,000 Climbing Atlanta Center
Tue 05:06:10 PM 35.7778 -83.5167 321° Northwest 379 436 31,700 1,100 Climbing Atlanta Center
Tue 05:07:10 PM 35.8594 -83.6031 319° Northwest 384 442 32,900 1,150 Climbing Atlanta Center
Tue 05:08:10 PM 35.9389 -83.6847 320° Northwest 384 442 34,000 550 Climbing Atlanta Center
Tue 05:09:10 PM 36.0206 -83.7692 320° Northwest 384 442 34,000  Level Atlanta Center
Tue 05:10:42 PM 36.1414 -83.8933 320° Northwest 399 459 34,000  Level Indianapolis Center
Tue 05:11:44 PM 36.2292 -83.9858 320° Northwest 410 472 34,000  Level Indianapolis Center
Tue 05:12:46 PM 36.3375 -84.0992 320° Northwest 422 486 34,000  Level Indianapolis Center
Tue 05:13:48 PM 36.4297 -84.1964 320° Northwest 431 496 34,000  Level Indianapolis Center
Tue 05:14:50 PM 36.5306 -84.3039 319° Northwest 436 502 34,000  Level Indianapolis Center
Tue 05:15:52 PM 36.6239 -84.4025 320° Northwest 438 504 34,000  Level Indianapolis Center
Tue 05:16:54 PM 36.7183 -84.5036 319° Northwest 443 510 34,000  Level Indianapolis Center
Tue 05:17:56 PM 36.8208 -84.6133 319° Northwest 446 513 34,000  Level Indianapolis Center
Tue 05:18:58 PM 36.9147 -84.7139 319° Northwest 446 513 34,000 -484 Level Indianapolis Center
Tue 05:20:00 PM 37.0097 -84.8161 319° Northwest 451 519 33,000 -1,790 Descending Indianapolis Center
Tue 05:21:02 PM 37.1178 -84.9336 319° Northwest 465 535 30,300 -2,516 Descending Indianapolis Center
Tue 05:22:04 PM 37.2181 -85.0414 319° Northwest 470 541 27,800 -2,081 Descending Indianapolis Center
Tue 05:23:06 PM 37.3175 -85.1508 319° Northwest 473 544 26,000 -871 Descending Indianapolis Center
Tue 05:24:08 PM 37.4158 -85.2575 319° Northwest 467 537 26,000  Level Indianapolis Center
Tue 05:25:10 PM 37.5133 -85.3653 319° Northwest 465 535 26,000  Level Indianapolis Center
Tue 05:26:12 PM 37.6128 -85.4747 319° Northwest 471 542 26,000  Level Indianapolis Center
Tue 05:27:14 PM 37.7183 -85.5878 320° Northwest 478 550 26,000  Level Indianapolis Center
Tue 05:28:16 PM 37.8158 -85.6986 318° Northwest 473 544 26,000  Level Indianapolis Center
Tue 05:29:18 PM 37.9147 -85.8083 319° Northwest 471 542 26,000  Level Indianapolis Center
Tue 05:30:21 PM 38.0347 -85.9422 319° Northwest 478 550 26,000  Level Indianapolis Center
Tue 05:31:23 PM 38.1328 -86.0525 319° Northwest 473 544 26,000  Level Indianapolis Center
Tue 05:32:25 PM 38.2300 -86.1631 318° Northwest 470 541 26,000  Level Indianapolis Center
Tue 05:33:27 PM 38.3278 -86.2731 319° Northwest 468 539 26,000  Level Indianapolis Center
Tue 05:34:29 PM 38.4258 -86.3833 319° Northwest 471 542 26,000  Level Indianapolis Center
Tue 05:35:31 PM 38.5231 -86.4942 318° Northwest 470 541 26,000 -290 Level Indianapolis Center
Tue 05:36:33 PM 38.6403 -86.6286 318° Northwest 473 544 25,400 -774 Descending Indianapolis Center
Tue 05:37:35 PM 38.7383 -86.7411 318° Northwest 476 548 24,400 -677 Descending Indianapolis Center
Tue 05:38:37 PM 38.8347 -86.8525 318° Northwest 471 542 24,000 -919 Descending Indianapolis Center
Tue 05:39:39 PM 38.9303 -86.9647 318° Northwest 468 539 22,500 -1,210 Descending Indianapolis Center
Tue 05:40:41 PM 39.0242 -87.0736 318° Northwest 458 527 21,500 -968 Descending Indianapolis Center
Tue 05:41:43 PM 39.1342 -87.2006 318° Northwest 467 537 20,500 -1,016 Descending Indianapolis Center
Tue 05:42:45 PM 39.2303 -87.3142 318° Northwest 467 537 19,400 -1,306 Descending Indianapolis Center
Tue 05:43:47 PM 39.3247 -87.4247 318° Northwest 463 533 17,800 -1,742 Descending Indianapolis Center
Tue 05:44:49 PM 39.4158 -87.5311 318° Northwest 448 516 15,800 -1,984 Descending Indianapolis Center
Tue 05:45:51 PM 39.5028 -87.6328 318° Northwest 431 496 13,700 -2,323 Descending Indianapolis Center
Tue 05:46:53 PM 39.6017 -87.7528 317° Northwest 410 472 11,000 -1,355 Descending Indianapolis Center
Tue 05:47:55 PM 39.6750 -87.8386 318° Northwest 365 420 10,900 -435 Descending Indianapolis Center
Tue 05:48:57 PM 39.7419 -87.9197 317° Northwest 338 389 10,100 -1,306 Descending Indianapolis Center
Tue 05:49:59 PM 39.8022 -87.9900 318° Northwest 303 349 8,200 -1,887 Descending Indianapolis Center
Tue 05:51:01 PM 39.8656 -88.0339 332° Northwest 268 308 6,200 -1,392 Descending Indianapolis Center
Tue 05:52:04 PM 39.9419 -88.0872 332° Northwest 264 304 5,300 -857 Descending Indianapolis Center
Tue 05:54:00 PM 40.0333 -88.2667 323° Northwest  Level FlightAware Approximate
Tue 06:01:00 PM 40.0388 -88.2778 323° Northwest  Level Estimated
Tue 06:02:00 PM 40.0388 -88.2778 323° Northwest  Level Estimated
Tue 06:03:00 PM 40.0388 -88.2778 323° Northwest  Level Estimated

Login

Don't have an account? Register now (free) for customized features, flight alerts, and more!